createdAt,value
2023-04-03T00:00:00.702Z,724.00
2023-04-03T00:01:00.717Z,642.00
2023-04-03T00:02:00.804Z,655.00
2023-04-03T00:03:00.864Z,802.00
2023-04-03T00:04:00.914Z,882.00
2023-04-03T00:05:00.877Z,885.00
2023-04-03T00:06:01.006Z,897.00
2023-04-03T00:07:01.035Z,882.00
2023-04-03T00:08:01.039Z,846.00
2023-04-03T00:09:01.118Z,815.00
2023-04-03T00:10:01.140Z,854.00
2023-04-03T00:11:01.233Z,785.00
2023-04-03T00:12:01.265Z,627.00
2023-04-03T00:13:01.307Z,608.00
2023-04-03T00:14:01.384Z,634.00
2023-04-03T00:15:01.426Z,709.00
2023-04-03T00:16:01.462Z,730.00
2023-04-03T00:17:01.590Z,784.00
2023-04-03T00:18:01.750Z,754.00
2023-04-03T00:19:01.666Z,711.00
2023-04-03T00:20:01.686Z,769.00
2023-04-03T00:21:01.724Z,687.00
2023-04-03T00:22:01.787Z,611.00
2023-04-03T00:23:01.852Z,600.00
2023-04-03T00:24:01.908Z,589.00
2023-04-03T00:25:01.906Z,573.00
2023-04-03T00:26:01.974Z,575.00
2023-04-03T00:27:01.981Z,611.00
2023-04-03T00:28:01.980Z,628.00
2023-04-03T00:29:02.061Z,592.00
2023-04-03T00:30:02.085Z,576.00
2023-04-03T00:31:02.240Z,610.00
2023-04-03T00:32:02.224Z,615.00
2023-04-03T00:33:02.284Z,566.00
2023-04-03T00:34:02.234Z,566.00
2023-04-03T00:35:02.346Z,590.00
2023-04-03T00:36:02.433Z,604.00
2023-04-03T00:37:02.429Z,604.00
2023-04-03T00:38:02.364Z,615.00
2023-04-03T00:39:02.372Z,579.00
2023-04-03T00:40:02.500Z,639.00
2023-04-03T00:41:02.489Z,577.00
2023-04-03T00:42:02.538Z,568.00
2023-04-03T00:43:02.544Z,560.00
2023-04-03T00:44:02.581Z,546.00
2023-04-03T00:45:02.607Z,606.00
2023-04-03T00:46:02.721Z,592.00
2023-04-03T00:47:02.749Z,568.00
2023-04-03T00:48:02.811Z,538.00
2023-04-03T00:49:02.822Z,573.00
2023-04-03T00:50:02.882Z,633.00
2023-04-03T00:51:02.941Z,637.00
2023-04-03T00:52:02.960Z,584.00
2023-04-03T00:53:03.001Z,569.00
2023-04-03T00:54:03.059Z,567.00
2023-04-03T00:55:03.089Z,526.00
2023-04-03T00:56:03.092Z,562.00
2023-04-03T00:57:03.223Z,505.00
2023-04-03T00:58:03.261Z,509.00
2023-04-03T00:59:03.278Z,502.00
2023-04-03T01:00:03.298Z,513.00
2023-04-03T01:01:03.314Z,502.00
2023-04-03T01:02:03.346Z,498.00
2023-04-03T01:03:03.370Z,536.00
2023-04-03T01:04:03.385Z,528.00
2023-04-03T01:05:03.356Z,500.00
2023-04-03T01:06:03.417Z,518.00
2023-04-03T01:07:03.395Z,508.00
2023-04-03T01:08:03.446Z,510.00
2023-04-03T01:09:03.490Z,500.00
2023-04-03T01:10:03.549Z,511.00
2023-04-03T01:11:03.622Z,519.00
2023-04-03T01:12:03.660Z,509.00
2023-04-03T01:13:03.700Z,506.00
2023-04-03T01:14:03.764Z,503.00
2023-04-03T01:15:03.854Z,528.00
2023-04-03T01:16:03.843Z,536.00
2023-04-03T01:17:03.899Z,519.00
2023-04-03T01:18:03.988Z,510.00
2023-04-03T01:19:03.933Z,525.00
2023-04-03T01:20:04.006Z,521.00
2023-04-03T01:21:04.057Z,533.00
2023-04-03T01:22:04.151Z,505.00
2023-04-03T01:23:04.117Z,506.00
2023-04-03T01:24:04.170Z,516.00
2023-04-03T01:25:04.220Z,500.00
2023-04-03T01:26:04.257Z,516.00
2023-04-03T01:27:04.284Z,532.00
2023-04-03T01:28:04.343Z,584.00
2023-04-03T01:29:04.397Z,546.00
2023-04-03T01:30:04.433Z,537.00
2023-04-03T01:31:04.531Z,520.00
2023-04-03T01:32:04.573Z,501.00
2023-04-03T01:33:04.612Z,501.00
2023-04-03T01:34:04.684Z,514.00
2023-04-03T01:35:04.705Z,547.00
2023-04-03T01:36:04.748Z,543.00
2023-04-03T01:37:04.827Z,528.00
2023-04-03T01:38:04.857Z,512.00
2023-04-03T01:39:04.925Z,543.00
2023-04-03T01:40:04.968Z,537.00
2023-04-03T01:41:05.030Z,530.00
2023-04-03T01:42:05.088Z,502.00
2023-04-03T01:43:05.106Z,514.00
2023-04-03T01:44:05.214Z,525.00
2023-04-03T01:45:05.192Z,544.00
2023-04-03T01:46:05.360Z,527.00
2023-04-03T01:47:05.244Z,530.00
2023-04-03T01:48:05.283Z,512.00
2023-04-03T01:49:05.338Z,510.00
2023-04-03T01:50:05.373Z,534.00
2023-04-03T01:51:05.403Z,518.00
2023-04-03T01:52:05.454Z,517.00
2023-04-03T01:53:05.509Z,514.00
2023-04-03T01:54:05.545Z,502.00
2023-04-03T01:55:05.610Z,501.00
2023-04-03T01:56:05.528Z,504.00
2023-04-03T01:57:05.667Z,529.00
2023-04-03T01:58:05.615Z,522.00
2023-04-03T01:59:05.588Z,549.00
2023-04-03T02:00:05.621Z,528.00
2023-04-03T02:01:05.685Z,536.00
2023-04-03T02:02:05.697Z,506.00
2023-04-03T02:03:05.780Z,510.00
2023-04-03T02:04:05.765Z,508.00
2023-04-03T02:05:05.761Z,525.00
2023-04-03T02:06:05.761Z,531.00
2023-04-03T02:07:05.827Z,543.00
2023-04-03T02:08:05.815Z,541.00
2023-04-03T02:09:05.817Z,527.00
2023-04-03T02:10:05.826Z,548.00
2023-04-03T02:11:05.828Z,535.00
2023-04-03T02:12:05.914Z,520.00
2023-04-03T02:13:05.895Z,528.00
2023-04-03T02:14:05.907Z,508.00
2023-04-03T02:15:05.996Z,508.00
2023-04-03T02:16:06.036Z,527.00
2023-04-03T02:17:06.107Z,517.00
2023-04-03T02:18:07.800Z,518.00
2023-04-03T02:19:06.171Z,521.00
2023-04-03T02:20:06.233Z,501.00
2023-04-03T02:21:06.312Z,504.00
2023-04-03T02:22:06.308Z,517.00
2023-04-03T02:23:06.389Z,520.00
2023-04-03T02:24:06.425Z,535.00
2023-04-03T02:25:06.468Z,532.00
2023-04-03T02:26:06.556Z,528.00
2023-04-03T02:27:06.619Z,538.00
2023-04-03T02:28:06.651Z,533.00
2023-04-03T02:29:06.715Z,543.00
2023-04-03T02:30:06.722Z,559.00
2023-04-03T02:31:06.849Z,531.00
2023-04-03T02:32:06.859Z,550.00
2023-04-03T02:33:07.005Z,524.00
2023-04-03T02:34:06.963Z,502.00
2023-04-03T02:35:07.006Z,508.00
2023-04-03T02:36:07.071Z,520.00
2023-04-03T02:37:07.098Z,530.00
2023-04-03T02:38:07.111Z,550.00
2023-04-03T02:39:07.137Z,546.00
2023-04-03T02:40:07.245Z,539.00
2023-04-03T02:41:07.231Z,529.00
2023-04-03T02:42:07.204Z,523.00
2023-04-03T02:43:07.205Z,526.00
2023-04-03T02:44:07.192Z,510.00
2023-04-03T02:45:07.224Z,500.00
2023-04-03T02:46:07.337Z,506.00
2023-04-03T02:47:07.783Z,525.00
2023-04-03T02:48:07.314Z,518.00
2023-04-03T02:49:07.247Z,524.00
2023-04-03T02:50:07.312Z,549.00
2023-04-03T02:51:07.313Z,552.00
2023-04-03T02:52:07.321Z,518.00
2023-04-03T02:53:07.343Z,524.00
2023-04-03T02:54:07.336Z,521.00
2023-04-03T02:55:07.321Z,522.00
2023-04-03T02:56:07.341Z,549.00
2023-04-03T02:57:07.405Z,571.00
2023-04-03T02:58:09.611Z,559.00
2023-04-03T02:59:07.370Z,553.00
2023-04-03T03:00:07.341Z,540.00
2023-04-03T03:01:07.311Z,528.00
2023-04-03T03:02:07.345Z,514.00
2023-04-03T03:03:07.365Z,519.00
2023-04-03T03:04:07.340Z,514.00
2023-04-03T03:05:07.363Z,519.00
2023-04-03T03:06:07.295Z,501.00
2023-04-03T03:07:07.296Z,503.00
2023-04-03T03:08:07.301Z,529.00
2023-04-03T03:09:07.301Z,546.00
2023-04-03T03:10:07.316Z,538.00
2023-04-03T03:11:07.296Z,528.00
2023-04-03T03:12:07.335Z,550.00
2023-04-03T03:13:07.312Z,532.00
2023-04-03T03:14:07.278Z,531.00
2023-04-03T03:15:07.268Z,531.00
2023-04-03T03:16:07.292Z,520.00
2023-04-03T03:17:07.259Z,528.00
2023-04-03T03:18:07.302Z,516.00
2023-04-03T03:19:07.289Z,531.00
2023-04-03T03:20:07.272Z,526.00
2023-04-03T03:21:07.245Z,534.00
2023-04-03T03:22:07.239Z,530.00
2023-04-03T03:23:07.239Z,573.00
2023-04-03T03:24:07.216Z,531.00
2023-04-03T03:25:07.249Z,523.00
2023-04-03T03:26:07.242Z,554.00
2023-04-03T03:27:07.250Z,553.00
2023-04-03T03:28:07.221Z,538.00
2023-04-03T03:29:07.255Z,533.00
2023-04-03T03:30:07.242Z,533.00
2023-04-03T03:31:07.253Z,520.00
2023-04-03T03:32:07.250Z,517.00
2023-04-03T03:33:07.240Z,517.00
2023-04-03T03:34:07.202Z,521.00
2023-04-03T03:35:07.209Z,525.00
2023-04-03T03:36:07.214Z,519.00
2023-04-03T03:37:07.219Z,521.00
2023-04-03T03:38:07.181Z,539.00
2023-04-03T03:39:07.209Z,556.00
2023-04-03T03:40:07.219Z,539.00
2023-04-03T03:41:07.193Z,540.00
2023-04-03T03:42:07.191Z,530.00
2023-04-03T03:43:07.198Z,558.00
2023-04-03T03:44:07.169Z,572.00
2023-04-03T03:45:07.169Z,553.00
2023-04-03T03:46:07.166Z,542.00
2023-04-03T03:47:07.149Z,534.00
2023-04-03T03:48:07.166Z,528.00
2023-04-03T03:49:07.117Z,525.00
2023-04-03T03:50:07.085Z,536.00
2023-04-03T03:51:07.182Z,553.00
2023-04-03T03:52:07.093Z,563.00
2023-04-03T03:53:07.088Z,569.00
2023-04-03T03:54:07.105Z,577.00
2023-04-03T03:55:07.030Z,562.00
2023-04-03T03:56:07.042Z,545.00
2023-04-03T03:57:07.076Z,553.00
2023-04-03T03:58:06.978Z,555.00
2023-04-03T03:59:06.995Z,563.00
2023-04-03T04:00:07.000Z,553.00
2023-04-03T04:01:07.077Z,594.00
2023-04-03T04:02:06.981Z,598.00
2023-04-03T04:03:07.000Z,576.00
2023-04-03T04:04:06.990Z,599.00
2023-04-03T04:05:06.921Z,603.00
2023-04-03T04:06:06.936Z,584.00
2023-04-03T04:07:06.924Z,570.00
2023-04-03T04:08:06.916Z,553.00
2023-04-03T04:09:06.912Z,552.00
2023-04-03T04:10:06.888Z,550.00
2023-04-03T04:11:06.918Z,558.00
2023-04-03T04:12:06.894Z,576.00
2023-04-03T04:13:06.901Z,588.00
2023-04-03T04:14:06.883Z,599.00
2023-04-03T04:15:06.847Z,601.00
2023-04-03T04:16:06.855Z,595.00
2023-04-03T04:17:06.924Z,591.00
2023-04-03T04:18:06.877Z,589.00
2023-04-03T04:19:08.869Z,604.00
2023-04-03T04:20:06.811Z,635.00
2023-04-03T04:21:06.813Z,598.00
2023-04-03T04:22:06.817Z,592.00
2023-04-03T04:23:06.810Z,588.00
2023-04-03T04:24:06.797Z,619.00
2023-04-03T04:25:06.793Z,629.00
2023-04-03T04:26:06.815Z,650.00
2023-04-03T04:27:06.822Z,648.00
2023-04-03T04:28:06.823Z,657.00
2023-04-03T04:29:06.849Z,659.00
2023-04-03T04:30:06.844Z,645.00
2023-04-03T04:31:06.847Z,682.00
2023-04-03T04:32:06.903Z,707.00
2023-04-03T04:33:06.896Z,746.00
2023-04-03T04:34:06.846Z,685.00
2023-04-03T04:35:06.888Z,663.00
2023-04-03T04:36:06.989Z,659.00
2023-04-03T04:37:07.041Z,649.00
2023-04-03T04:38:06.877Z,668.00
2023-04-03T04:39:06.881Z,667.00
2023-04-03T04:40:06.888Z,710.00
2023-04-03T04:41:06.901Z,663.00
2023-04-03T04:42:06.902Z,758.00
2023-04-03T04:43:06.893Z,799.00
2023-04-03T04:44:06.894Z,843.00
2023-04-03T04:45:06.949Z,855.00
2023-04-03T04:46:06.965Z,910.00
2023-04-03T04:47:06.959Z,854.00
2023-04-03T04:48:07.089Z,859.00
2023-04-03T04:49:07.907Z,833.00
2023-04-03T04:50:07.065Z,876.00
2023-04-03T04:51:07.076Z,841.00
2023-04-03T04:52:07.109Z,859.00
2023-04-03T04:53:07.078Z,814.00
2023-04-03T04:54:07.138Z,791.00
2023-04-03T04:55:07.156Z,766.00
2023-04-03T04:56:07.100Z,739.00
2023-04-03T04:57:07.139Z,760.00
2023-04-03T04:58:07.133Z,740.00
2023-04-03T04:59:07.129Z,753.00
2023-04-03T05:00:07.088Z,759.00
2023-04-03T05:01:07.063Z,705.00
2023-04-03T05:02:07.099Z,701.00
2023-04-03T05:03:07.108Z,791.00
2023-04-03T05:04:07.083Z,763.00
2023-04-03T05:05:07.095Z,797.00
2023-04-03T05:06:07.068Z,710.00
2023-04-03T05:07:07.047Z,708.00
2023-04-03T05:08:07.033Z,717.00
2023-04-03T05:09:07.059Z,700.00
2023-04-03T05:10:07.052Z,755.00
2023-04-03T05:11:07.043Z,752.00
2023-04-03T05:12:07.049Z,680.00
2023-04-03T05:13:07.094Z,665.00
2023-04-03T05:14:07.054Z,655.00
2023-04-03T05:15:07.021Z,648.00
2023-04-03T05:16:07.073Z,677.00
2023-04-03T05:17:06.985Z,651.00
2023-04-03T05:18:07.000Z,657.00
2023-04-03T05:19:07.007Z,648.00
2023-04-03T05:20:06.952Z,652.00
2023-04-03T05:21:06.988Z,688.00
2023-04-03T05:22:06.959Z,671.00
2023-04-03T05:23:07.012Z,659.00
2023-04-03T05:24:06.957Z,736.00
2023-04-03T05:25:06.937Z,746.00
2023-04-03T05:26:06.933Z,670.00
2023-04-03T05:27:06.938Z,692.00
2023-04-03T05:28:06.910Z,734.00
2023-04-03T05:29:06.915Z,682.00
2023-04-03T05:30:06.897Z,691.00
2023-04-03T05:31:06.920Z,677.00
2023-04-03T05:32:06.875Z,669.00
2023-04-03T05:33:06.890Z,710.00
2023-04-03T05:34:06.897Z,738.00
2023-04-03T05:35:06.871Z,685.00
2023-04-03T05:36:06.906Z,719.00
2023-04-03T05:37:06.846Z,760.00
2023-04-03T05:38:06.864Z,711.00
2023-04-03T05:39:06.832Z,760.00
2023-04-03T05:40:06.846Z,901.00
2023-04-03T05:41:06.862Z,773.00
2023-04-03T05:42:06.841Z,805.00
2023-04-03T05:43:06.864Z,922.00
2023-04-03T05:44:06.839Z,997.00
2023-04-03T05:45:06.813Z,1070.00
2023-04-03T05:46:06.960Z,1092.00
2023-04-03T05:47:06.823Z,1114.00
2023-04-03T05:48:06.910Z,1092.00
2023-04-03T05:49:06.794Z,1133.00
2023-04-03T05:50:06.800Z,1093.00
2023-04-03T05:51:06.791Z,1074.00
2023-04-03T05:52:06.778Z,1018.00
2023-04-03T05:53:06.786Z,989.00
2023-04-03T05:54:06.752Z,984.00
2023-04-03T05:55:06.771Z,910.00
2023-04-03T05:56:06.762Z,806.00
2023-04-03T05:57:06.783Z,894.00
2023-04-03T05:58:06.731Z,932.00
2023-04-03T05:59:06.740Z,864.00
2023-04-03T06:00:06.730Z,820.00
2023-04-03T06:01:06.746Z,872.00
2023-04-03T06:02:06.699Z,891.00
2023-04-03T06:03:06.801Z,873.00
2023-04-03T06:04:06.761Z,862.00
2023-04-03T06:05:06.767Z,839.00
2023-04-03T06:06:06.677Z,742.00
2023-04-03T06:07:06.652Z,852.00
2023-04-03T06:08:06.679Z,781.00
2023-04-03T06:09:06.623Z,673.00
2023-04-03T06:10:06.643Z,673.00
2023-04-03T06:11:06.638Z,659.00
2023-04-03T06:12:06.632Z,637.00
2023-04-03T06:13:06.720Z,634.00
2023-04-03T06:14:06.734Z,632.00
2023-04-03T06:15:06.770Z,613.00
2023-04-03T06:16:06.790Z,616.00
2023-04-03T06:17:06.834Z,619.00
2023-04-03T06:18:06.848Z,618.00
2023-04-03T06:19:06.814Z,605.00
2023-04-03T06:20:06.901Z,600.00
2023-04-03T06:21:06.925Z,596.00
2023-04-03T06:22:06.921Z,595.00
2023-04-03T06:23:08.201Z,585.00
2023-04-03T06:24:06.998Z,572.00
2023-04-03T06:25:07.073Z,578.00
2023-04-03T06:26:07.088Z,603.00
2023-04-03T06:27:07.131Z,616.00
2023-04-03T06:28:07.130Z,603.00
2023-04-03T06:29:07.125Z,581.00
2023-04-03T06:30:07.154Z,560.00
2023-04-03T06:31:07.176Z,555.00
2023-04-03T06:32:07.186Z,555.00
2023-04-03T06:33:07.227Z,550.00
2023-04-03T06:34:08.608Z,572.00
2023-04-03T06:35:07.201Z,631.00
2023-04-03T06:36:07.199Z,626.00
2023-04-03T06:37:07.313Z,643.00
2023-04-03T06:38:07.219Z,632.00
2023-04-03T06:39:07.284Z,593.00
2023-04-03T06:40:07.342Z,610.00
2023-04-03T06:41:07.340Z,632.00
2023-04-03T06:42:07.339Z,594.00
2023-04-03T06:43:07.419Z,592.00
2023-04-03T06:44:07.384Z,598.00
2023-04-03T06:45:07.392Z,585.00
2023-04-03T06:46:07.412Z,590.00
2023-04-03T06:47:07.406Z,582.00
2023-04-03T06:48:07.539Z,590.00
2023-04-03T06:49:07.405Z,584.00
2023-04-03T06:50:07.378Z,562.00
2023-04-03T06:51:07.432Z,591.00
2023-04-03T06:52:07.463Z,623.00
2023-04-03T06:53:07.481Z,609.00
2023-04-03T06:54:07.521Z,631.00
2023-04-03T06:55:07.564Z,616.00
2023-04-03T06:56:07.569Z,599.00
2023-04-03T06:57:07.755Z,580.00
2023-04-03T06:58:07.689Z,592.00
2023-04-03T06:59:07.686Z,618.00
2023-04-03T07:00:07.718Z,608.00
2023-04-03T07:01:07.703Z,629.00
2023-04-03T07:02:07.843Z,611.00
2023-04-03T07:03:07.852Z,631.00
2023-04-03T07:04:07.870Z,639.00
2023-04-03T07:05:07.865Z,657.00
2023-04-03T07:06:07.878Z,666.00
2023-04-03T07:07:07.934Z,635.00
2023-04-03T07:08:08.017Z,655.00
2023-04-03T07:09:08.174Z,721.00
2023-04-03T07:10:08.063Z,663.00
2023-04-03T07:11:08.147Z,680.00
2023-04-03T07:12:08.176Z,647.00
2023-04-03T07:13:08.219Z,661.00
2023-04-03T07:14:08.265Z,692.00
2023-04-03T07:15:08.308Z,698.00
2023-04-03T07:16:08.349Z,659.00
2023-04-03T07:17:08.415Z,682.00
2023-04-03T07:18:08.424Z,658.00
2023-04-03T07:19:08.401Z,655.00
2023-04-03T07:20:08.403Z,637.00
2023-04-03T07:21:08.412Z,657.00
2023-04-03T07:22:08.438Z,637.00
2023-04-03T07:23:08.473Z,647.00
2023-04-03T07:24:11.326Z,707.00
2023-04-03T07:25:09.472Z,707.00
2023-04-03T07:26:08.458Z,665.00
2023-04-03T07:27:08.444Z,638.00
2023-04-03T07:28:08.429Z,622.00
2023-04-03T07:29:08.411Z,640.00
2023-04-03T07:30:08.417Z,708.00
2023-04-03T07:31:08.420Z,712.00
2023-04-03T07:32:08.360Z,689.00
2023-04-03T07:33:08.370Z,782.00
2023-04-03T07:34:08.305Z,748.00
2023-04-03T07:35:08.277Z,789.00
2023-04-03T07:36:08.328Z,702.00
2023-04-03T07:37:08.284Z,701.00
2023-04-03T07:38:08.311Z,756.00
2023-04-03T07:39:08.379Z,729.00
2023-04-03T07:40:08.405Z,717.00
2023-04-03T07:41:08.415Z,734.00
2023-04-03T07:42:08.454Z,735.00
2023-04-03T07:43:08.484Z,672.00
2023-04-03T07:44:08.554Z,683.00
2023-04-03T07:45:08.535Z,671.00
2023-04-03T07:46:08.605Z,675.00
2023-04-03T07:47:08.669Z,735.00
2023-04-03T07:48:08.692Z,704.00
2023-04-03T07:49:08.777Z,668.00
2023-04-03T07:50:08.811Z,738.00
2023-04-03T07:51:08.845Z,740.00
2023-04-03T07:52:08.903Z,660.00
2023-04-03T07:53:08.974Z,668.00
2023-04-03T07:54:08.985Z,769.00
2023-04-03T07:55:09.036Z,666.00
2023-04-03T07:56:09.121Z,688.00
2023-04-03T07:57:09.223Z,661.00
2023-04-03T07:58:09.209Z,664.00
2023-04-03T07:59:09.251Z,692.00
2023-04-03T08:00:09.277Z,696.00
2023-04-03T08:01:09.352Z,733.00
2023-04-03T08:02:09.409Z,729.00
2023-04-03T08:03:10.547Z,714.00
2023-04-03T08:04:09.617Z,694.00
2023-04-03T08:05:09.652Z,660.00
2023-04-03T08:06:15.344Z,636.00
2023-04-03T08:07:10.632Z,636.00
2023-04-03T08:08:09.636Z,638.00
2023-04-03T08:09:09.617Z,643.00
2023-04-03T08:10:09.587Z,633.00
2023-04-03T08:11:09.624Z,649.00
2023-04-03T08:12:09.625Z,646.00
2023-04-03T08:13:09.617Z,647.00
2023-04-03T08:14:09.538Z,644.00
2023-04-03T08:15:09.624Z,638.00
2023-04-03T08:16:09.707Z,653.00
2023-04-03T08:17:09.719Z,651.00
2023-04-03T08:18:09.729Z,666.00
2023-04-03T08:19:15.252Z,678.00
2023-04-03T08:20:10.798Z,679.00
2023-04-03T08:21:09.774Z,684.00
2023-04-03T08:22:09.756Z,698.00
2023-04-03T08:23:09.775Z,717.00
2023-04-03T08:24:09.725Z,886.00
2023-04-03T08:25:09.707Z,906.00
2023-04-03T08:26:09.751Z,898.00
2023-04-03T08:27:09.713Z,865.00
2023-04-03T08:28:09.787Z,922.00
2023-04-03T08:29:09.854Z,892.00
2023-04-03T08:30:09.925Z,885.00
2023-04-03T08:31:09.926Z,906.00
2023-04-03T08:32:09.935Z,922.00
2023-04-03T08:33:10.024Z,920.00
2023-04-03T08:34:10.038Z,919.00
2023-04-03T08:35:10.105Z,815.00
2023-04-03T08:36:10.128Z,808.00
2023-04-03T08:37:10.126Z,839.00
2023-04-03T08:38:10.196Z,714.00
2023-04-03T08:39:10.275Z,799.00
2023-04-03T08:40:10.306Z,847.00
2023-04-03T08:41:10.346Z,780.00
2023-04-03T08:42:10.434Z,819.00
2023-04-03T08:43:10.428Z,793.00
2023-04-03T08:44:10.526Z,887.00
2023-04-03T08:45:10.656Z,826.00
2023-04-03T08:46:10.598Z,880.00
2023-04-03T08:47:10.632Z,835.00
2023-04-03T08:48:10.704Z,819.00
2023-04-03T08:49:10.720Z,879.00
2023-04-03T08:50:11.092Z,877.00
2023-04-03T08:51:12.517Z,858.00
2023-04-03T08:52:10.837Z,809.00
2023-04-03T08:53:10.891Z,854.00
2023-04-03T08:54:10.954Z,734.00
2023-04-03T08:55:11.016Z,717.00
2023-04-03T08:56:11.085Z,730.00
2023-04-03T08:57:11.144Z,733.00
2023-04-03T08:58:11.168Z,760.00
2023-04-03T08:59:11.209Z,996.00
2023-04-03T09:00:11.269Z,1000.00
2023-04-03T09:01:11.431Z,891.00
2023-04-03T09:02:11.385Z,966.00
2023-04-03T09:03:11.492Z,867.00
2023-04-03T09:04:11.530Z,834.00
2023-04-03T09:05:11.541Z,954.00
2023-04-03T09:06:11.727Z,998.00
2023-04-03T09:07:11.628Z,1024.00
2023-04-03T09:08:11.657Z,1043.00
2023-04-03T09:09:11.702Z,1073.00
2023-04-03T09:10:11.793Z,1055.00
2023-04-03T09:11:11.806Z,1045.00
2023-04-03T09:12:11.833Z,989.00
2023-04-03T09:13:11.860Z,977.00
2023-04-03T09:14:11.891Z,1041.00
2023-04-03T09:15:11.930Z,1078.00
2023-04-03T09:16:11.985Z,1087.00
2023-04-03T09:17:12.073Z,1094.00
2023-04-03T09:18:12.018Z,1090.00
2023-04-03T09:19:12.114Z,1082.00
2023-04-03T09:20:12.152Z,1073.00
2023-04-03T09:21:12.182Z,1054.00
2023-04-03T09:22:12.239Z,1019.00
2023-04-03T09:23:12.261Z,1030.00
2023-04-03T09:24:12.286Z,1017.00
2023-04-03T09:25:12.328Z,1051.00
2023-04-03T09:26:12.370Z,1055.00
2023-04-03T09:27:12.451Z,940.00
2023-04-03T09:28:12.456Z,918.00
2023-04-03T09:29:12.476Z,884.00
2023-04-03T09:30:12.502Z,993.00
2023-04-03T09:31:12.612Z,1037.00
2023-04-03T09:32:12.593Z,1051.00
2023-04-03T09:33:12.781Z,1045.00
2023-04-03T09:34:12.668Z,1012.00
2023-04-03T09:35:20.759Z,1023.00
2023-04-03T09:36:13.755Z,1024.00
2023-04-03T09:37:12.704Z,1027.00
2023-04-03T09:38:13.033Z,1006.00
2023-04-03T09:39:12.660Z,1008.00
2023-04-03T09:40:12.634Z,984.00
2023-04-03T09:41:12.638Z,975.00
2023-04-03T09:42:12.597Z,996.00
2023-04-03T09:43:12.625Z,980.00
2023-04-03T09:44:12.577Z,966.00
2023-04-03T09:45:12.640Z,990.00
2023-04-03T09:46:12.635Z,884.00
2023-04-03T09:47:12.737Z,922.00
2023-04-03T09:48:16.167Z,959.00
2023-04-03T09:49:12.804Z,976.00
2023-04-03T09:50:12.719Z,1004.00
2023-04-03T09:51:12.731Z,979.00
2023-04-03T09:52:12.651Z,1009.00
2023-04-03T09:53:12.685Z,1002.00
2023-04-03T09:54:12.620Z,987.00
2023-04-03T09:55:12.587Z,963.00
2023-04-03T09:56:12.604Z,956.00
2023-04-03T09:57:12.714Z,950.00
2023-04-03T09:58:12.595Z,966.00
2023-04-03T09:59:12.527Z,963.00
2023-04-03T10:00:12.523Z,987.00
2023-04-03T10:01:12.544Z,958.00
2023-04-03T10:02:12.521Z,932.00
2023-04-03T10:03:12.508Z,913.00
2023-04-03T10:04:12.496Z,893.00
2023-04-03T10:05:12.593Z,921.00
2023-04-03T10:06:12.434Z,923.00
2023-04-03T10:07:12.430Z,942.00
2023-04-03T10:08:12.418Z,981.00
2023-04-03T10:09:12.393Z,965.00
2023-04-03T10:10:12.389Z,924.00
2023-04-03T10:11:12.371Z,896.00
2023-04-03T10:12:12.360Z,866.00
2023-04-03T10:13:20.140Z,923.00
2023-04-03T10:14:13.331Z,925.00
2023-04-03T10:15:12.340Z,900.00
2023-04-03T10:16:12.321Z,933.00
2023-04-03T10:17:12.322Z,972.00
2023-04-03T10:18:23.921Z,965.00
2023-04-03T10:19:13.275Z,926.00
2023-04-03T10:20:12.294Z,932.00
2023-04-03T10:21:21.319Z,940.00
2023-04-03T10:22:13.212Z,926.00
2023-04-03T10:23:12.193Z,932.00
2023-04-03T10:24:12.188Z,939.00
2023-04-03T10:25:12.175Z,968.00
2023-04-03T10:26:14.590Z,952.00
2023-04-03T10:27:12.375Z,1015.00
2023-04-03T10:28:12.411Z,990.00
2023-04-03T10:29:12.462Z,1006.00
2023-04-03T10:30:12.522Z,981.00
2023-04-03T10:31:12.717Z,943.00
2023-04-03T10:32:12.567Z,974.00
2023-04-03T10:33:12.630Z,1002.00
2023-04-03T10:34:12.687Z,972.00
2023-04-03T10:35:12.698Z,1026.00
2023-04-03T10:36:12.848Z,1008.00
2023-04-03T10:37:12.899Z,1025.00
2023-04-03T10:38:12.848Z,1010.00
2023-04-03T10:39:12.889Z,995.00
2023-04-03T10:40:12.946Z,976.00
2023-04-03T10:41:13.002Z,969.00
2023-04-03T10:42:16.655Z,956.00
2023-04-03T10:43:13.030Z,957.00
2023-04-03T10:44:13.041Z,960.00
2023-04-03T10:45:12.995Z,967.00
2023-04-03T10:46:12.969Z,971.00
2023-04-03T10:47:12.983Z,992.00
2023-04-03T10:48:13.032Z,1012.00
2023-04-03T10:49:12.913Z,1008.00
2023-04-03T10:50:12.954Z,1015.00
2023-04-03T10:51:12.923Z,1025.00
2023-04-03T10:52:12.980Z,992.00
2023-04-03T10:53:12.989Z,979.00
2023-04-03T10:54:12.868Z,1012.00
2023-04-03T10:55:12.857Z,998.00
2023-04-03T10:56:12.836Z,980.00
2023-04-03T10:57:13.813Z,1014.00
2023-04-03T10:58:12.784Z,996.00
2023-04-03T10:59:12.786Z,1007.00
2023-04-03T11:00:13.494Z,993.00
2023-04-03T11:01:12.780Z,984.00
2023-04-03T11:02:12.747Z,935.00
2023-04-03T11:03:12.767Z,965.00
2023-04-03T11:04:12.843Z,955.00
2023-04-03T11:05:12.789Z,944.00
2023-04-03T11:06:12.829Z,935.00
2023-04-03T11:07:12.906Z,925.00
2023-04-03T11:08:12.956Z,936.00
2023-04-03T11:09:12.966Z,902.00
2023-04-03T11:11:13.063Z,943.00
2023-04-03T11:12:13.090Z,918.00
2023-04-03T11:13:13.183Z,934.00
2023-04-03T11:14:13.189Z,933.00
2023-04-03T11:15:13.235Z,947.00
2023-04-03T11:16:13.306Z,972.00
2023-04-03T11:17:13.281Z,964.00
2023-04-03T11:18:13.411Z,949.00
2023-04-03T11:19:13.382Z,947.00
2023-04-03T11:20:13.399Z,940.00
2023-04-03T11:21:13.464Z,965.00
2023-04-03T11:22:13.500Z,979.00
2023-04-03T11:23:13.535Z,1000.00
2023-04-03T11:24:13.625Z,1004.00
2023-04-03T11:25:13.641Z,1007.00
2023-04-03T11:26:13.688Z,965.00
2023-04-03T11:27:13.696Z,971.00
2023-04-03T11:28:13.714Z,934.00
2023-04-03T11:29:17.829Z,967.00
2023-04-03T11:30:14.730Z,967.00
2023-04-03T11:31:13.759Z,970.00
2023-04-03T11:32:13.714Z,972.00
2023-04-03T11:33:13.721Z,976.00
2023-04-03T11:34:13.669Z,960.00
2023-04-03T11:35:13.674Z,935.00
2023-04-03T11:36:24.875Z,927.00
2023-04-03T11:37:14.663Z,928.00
2023-04-03T11:38:13.612Z,932.00
2023-04-03T11:39:13.615Z,937.00
2023-04-03T11:40:13.566Z,903.00
2023-04-03T11:41:13.652Z,914.00
2023-04-03T11:42:13.574Z,890.00
2023-04-03T11:43:13.523Z,860.00
2023-04-03T11:44:13.506Z,883.00
2023-04-03T11:45:13.466Z,886.00
2023-04-03T11:46:13.483Z,916.00
2023-04-03T11:47:13.482Z,944.00
2023-04-03T11:48:23.939Z,929.00
2023-04-03T11:49:14.520Z,930.00
2023-04-03T11:50:13.469Z,870.00
2023-04-03T11:51:13.482Z,842.00
2023-04-03T11:52:13.451Z,864.00
2023-04-03T11:53:13.443Z,896.00
2023-04-03T11:54:13.401Z,897.00
2023-04-03T11:55:13.398Z,933.00
2023-04-03T11:56:13.362Z,918.00
2023-04-03T11:57:13.542Z,936.00
2023-04-03T11:58:13.407Z,908.00
2023-04-03T11:59:13.341Z,956.00
2023-04-03T12:00:13.357Z,936.00
2023-04-03T12:01:13.421Z,933.00
2023-04-03T12:02:13.488Z,858.00
2023-04-03T12:03:13.595Z,928.00
2023-04-03T12:04:13.636Z,922.00
2023-04-03T12:05:13.575Z,933.00
2023-04-03T12:06:13.601Z,956.00
2023-04-03T12:07:13.633Z,937.00
2023-04-03T12:08:13.696Z,915.00
2023-04-03T12:09:13.717Z,925.00
2023-04-03T12:11:13.810Z,915.00
2023-04-03T12:12:13.835Z,947.00
2023-04-03T12:13:13.947Z,958.00
2023-04-03T12:14:13.915Z,946.00
2023-04-03T12:15:13.939Z,935.00
2023-04-03T12:16:13.943Z,989.00
2023-04-03T12:17:14.032Z,945.00
2023-04-03T12:18:14.114Z,959.00
2023-04-03T12:19:14.107Z,933.00
2023-04-03T12:20:14.130Z,963.00
2023-04-03T12:21:14.146Z,983.00
2023-04-03T12:22:14.195Z,960.00
2023-04-03T12:23:14.231Z,955.00
2023-04-03T12:24:14.249Z,947.00
2023-04-03T12:25:14.280Z,958.00
2023-04-03T12:26:14.362Z,958.00
2023-04-03T12:27:14.418Z,987.00
2023-04-03T12:28:14.433Z,990.00